Wugang, China
Current Conditions -  °F | °C
As of 5:00 AM on Tuesday 23 Dec 2014 (Local Time) from ZGKL Reporting Station
Haze Haze  
Wind Chill: 34°   Ceiling: Unl
Heat Index: 34°   Visibility: 2.8mi
Dew Point: 32°   Wind: 2mph
Humidity: 93%   Direction: NA
Pressure: 30.18"   Gusts: NA
Location:  26.73°N, 110.63°E
Report Text: ZGKL 222100Z VRB01MPS 4500 BR NSC 01/M00 Q1022 NOSIG
Loading
Personal Weather Stations






























Interactive Weather Map New forecast layout! Learn more

10-Day Weather Forecast

Advertisements
Track Severe Weather on mobile